createdAt,value
2023-05-27T00:01:33.378Z,17.05
2023-05-27T00:03:36.241Z,17.06
2023-05-27T00:05:39.026Z,17.04
2023-05-27T00:07:42.214Z,17.08
2023-05-27T00:09:44.956Z,17.11
2023-05-27T00:11:47.579Z,17.14
2023-05-27T00:13:51.536Z,17.15
2023-05-27T00:15:54.365Z,17.17
2023-05-27T00:17:57.202Z,17.19
2023-05-27T00:20:06.874Z,17.19
2023-05-27T00:22:09.559Z,17.21
2023-05-27T00:24:12.403Z,17.22
2023-05-27T00:26:15.569Z,17.20
2023-05-27T00:28:19.389Z,17.21
2023-05-27T00:30:23.388Z,17.19
2023-05-27T00:32:26.137Z,17.17
2023-05-27T00:34:28.794Z,17.13
2023-05-27T00:36:32.765Z,17.12
2023-05-27T00:38:36.497Z,17.10
2023-05-27T00:40:41.739Z,17.09
2023-05-27T00:42:44.460Z,17.08
2023-05-27T00:44:49.981Z,17.07
2023-05-27T00:46:54.199Z,17.08
2023-05-27T00:48:56.984Z,17.07
2023-05-27T00:50:59.719Z,17.05
2023-05-27T00:53:02.852Z,17.04
2023-05-27T00:55:06.310Z,16.99
2023-05-27T00:57:08.943Z,16.94
2023-05-27T00:59:11.715Z,16.90
2023-05-27T01:01:14.385Z,16.89
2023-05-27T01:03:18.802Z,16.87
2023-05-27T01:05:22.617Z,16.85
2023-05-27T01:07:36.422Z,16.84
2023-05-27T01:09:43.635Z,16.83
2023-05-27T01:11:53.211Z,16.81
2023-05-27T01:14:01.057Z,16.79
2023-05-27T01:16:07.772Z,16.78
2023-05-27T01:18:11.569Z,16.76
2023-05-27T01:20:16.812Z,16.76
2023-05-27T01:22:21.438Z,16.74
2023-05-27T01:24:25.406Z,16.73
2023-05-27T01:26:28.057Z,16.70
2023-05-27T01:28:30.843Z,16.64
2023-05-27T01:30:33.891Z,16.61
2023-05-27T01:32:42.313Z,16.57
2023-05-27T01:34:52.324Z,16.54
2023-05-27T01:37:00.771Z,16.52
2023-05-27T01:39:05.975Z,16.52
2023-05-27T01:41:11.751Z,16.47
2023-05-27T01:43:16.672Z,16.42
2023-05-27T01:45:19.459Z,16.34
2023-05-27T01:47:22.092Z,16.26
2023-05-27T01:49:24.720Z,16.20
2023-05-27T01:51:27.349Z,16.09
2023-05-27T01:53:30.044Z,16.02
2023-05-27T01:55:32.832Z,15.94
2023-05-27T01:57:36.843Z,15.90
2023-05-27T01:59:40.075Z,15.86
2023-05-27T02:01:43.163Z,15.81
2023-05-27T02:03:46.105Z,15.78
2023-05-27T02:05:48.754Z,15.71
2023-05-27T02:07:51.392Z,15.68
2023-05-27T02:09:54.060Z,15.59
2023-05-27T02:11:56.641Z,15.57
2023-05-27T02:14:02.275Z,15.55
2023-05-27T02:16:05.090Z,15.54
2023-05-27T02:18:07.754Z,15.49
2023-05-27T02:20:11.280Z,15.44
2023-05-27T02:22:14.000Z,15.40
2023-05-27T02:24:16.637Z,15.36
2023-05-27T02:26:19.494Z,15.37
2023-05-27T02:28:22.092Z,15.36
2023-05-27T02:30:26.108Z,15.30
2023-05-27T02:32:32.216Z,15.25
2023-05-27T02:34:38.070Z,15.19
2023-05-27T02:36:40.772Z,15.15
2023-05-27T02:38:43.370Z,15.07
2023-05-27T02:40:46.137Z,15.04
2023-05-27T02:42:48.741Z,15.00
2023-05-27T02:44:51.374Z,15.01
2023-05-27T02:46:55.347Z,15.00
2023-05-27T02:48:57.952Z,14.98
2023-05-27T02:51:00.571Z,14.97
2023-05-27T02:53:03.189Z,14.91
2023-05-27T02:55:07.093Z,14.86
2023-05-27T02:57:09.734Z,14.83
2023-05-27T02:59:12.320Z,14.84
2023-05-27T03:01:15.110Z,14.83
2023-05-27T03:03:19.339Z,14.81
2023-05-27T03:05:22.153Z,14.72
2023-05-27T03:07:24.799Z,14.66
2023-05-27T03:09:27.390Z,14.63
2023-05-27T03:11:30.003Z,14.61
2023-05-27T03:13:32.617Z,14.60
2023-05-27T03:15:36.308Z,14.59
2023-05-27T03:17:39.750Z,14.54
2023-05-27T03:19:44.354Z,14.52
2023-05-27T03:21:46.984Z,14.48
2023-05-27T03:23:49.611Z,14.49
2023-05-27T03:25:52.564Z,14.52
2023-05-27T03:27:55.287Z,14.56
2023-05-27T03:29:57.929Z,14.59
2023-05-27T03:32:00.969Z,14.63
2023-05-27T03:34:03.719Z,14.62
2023-05-27T03:36:09.306Z,14.63
2023-05-27T03:38:11.956Z,14.56
2023-05-27T03:40:14.636Z,14.52
2023-05-27T03:42:17.332Z,14.47
2023-05-27T03:44:19.946Z,14.43
2023-05-27T03:46:22.633Z,14.42
2023-05-27T03:48:25.403Z,14.41
2023-05-27T03:50:28.006Z,14.38
2023-05-27T03:52:32.028Z,14.37
2023-05-27T03:54:34.700Z,14.34
2023-05-27T03:56:37.332Z,14.34
2023-05-27T03:58:40.047Z,14.33
2023-05-27T04:00:42.877Z,14.33
2023-05-27T04:02:45.627Z,14.33
2023-05-27T04:04:48.316Z,14.31
2023-05-27T04:06:51.010Z,14.31
2023-05-27T04:08:55.026Z,14.33
2023-05-27T04:10:57.737Z,14.38
2023-05-27T04:13:00.384Z,14.40
2023-05-27T04:15:03.013Z,14.43
2023-05-27T04:17:05.649Z,14.49
2023-05-27T04:19:08.346Z,14.54
2023-05-27T04:21:11.016Z,14.57
2023-05-27T04:23:13.633Z,14.60
2023-05-27T04:25:17.648Z,14.60
2023-05-27T04:27:20.225Z,14.60
2023-05-27T04:29:23.680Z,14.54
2023-05-27T04:31:29.629Z,14.49
2023-05-27T04:33:32.385Z,14.46
2023-05-27T04:35:35.651Z,14.43
2023-05-27T04:37:38.728Z,14.42
2023-05-27T04:39:46.499Z,14.41
2023-05-27T04:41:50.562Z,14.42
2023-05-27T04:43:53.170Z,14.41
2023-05-27T04:45:57.035Z,14.41
2023-05-27T04:47:59.844Z,14.44
2023-05-27T04:50:03.882Z,14.45
2023-05-27T04:52:08.232Z,14.45
2023-05-27T04:54:10.959Z,14.47
2023-05-27T04:56:16.086Z,14.51
2023-05-27T04:58:20.131Z,14.58
2023-05-27T05:00:37.206Z,14.63
2023-05-27T05:06:03.486Z,14.79
2023-05-27T05:08:06.711Z,14.85
2023-05-27T05:10:10.753Z,14.89
2023-05-27T05:12:13.868Z,14.96
2023-05-27T05:14:17.831Z,15.00
2023-05-27T05:16:20.682Z,15.06
2023-05-27T05:18:23.401Z,15.07
2023-05-27T05:20:26.376Z,15.11
2023-05-27T05:22:29.996Z,15.16
2023-05-27T05:24:32.712Z,15.19
2023-05-27T05:26:35.286Z,15.21
2023-05-27T05:28:37.901Z,15.23
2023-05-27T05:30:41.863Z,15.24
2023-05-27T05:32:44.555Z,15.28
2023-05-27T05:34:47.321Z,15.20
2023-05-27T05:36:49.935Z,15.22
2023-05-27T05:38:52.563Z,15.25
2023-05-27T05:40:55.505Z,15.28
2023-05-27T05:43:00.451Z,15.33
2023-05-27T05:45:03.088Z,15.36
2023-05-27T05:47:07.256Z,15.39
2023-05-27T05:49:10.209Z,15.42
2023-05-27T05:51:12.989Z,15.47
2023-05-27T05:53:15.663Z,15.46
2023-05-27T05:55:18.311Z,15.48
2023-05-27T05:57:20.899Z,15.54
2023-05-27T05:59:23.542Z,15.56
2023-05-27T06:01:28.019Z,15.58
2023-05-27T06:03:32.132Z,15.59
2023-05-27T06:05:34.896Z,15.61
2023-05-27T06:07:37.634Z,15.63
2023-05-27T06:09:40.307Z,15.65
2023-05-27T06:11:42.934Z,15.68
2023-05-27T06:13:45.682Z,15.70
2023-05-27T06:15:48.339Z,15.71
2023-05-27T06:17:51.059Z,15.70
2023-05-27T06:19:55.008Z,15.74
2023-05-27T06:21:57.644Z,15.77
2023-05-27T06:24:00.782Z,15.80
2023-05-27T06:26:04.556Z,15.81
2023-05-27T06:28:07.371Z,15.84
2023-05-27T06:30:10.847Z,15.85
2023-05-27T06:32:13.472Z,15.86
2023-05-27T06:34:17.174Z,15.88
2023-05-27T06:36:21.230Z,15.90
2023-05-27T06:38:23.856Z,15.91
2023-05-27T06:40:26.583Z,15.93
2023-05-27T06:42:29.211Z,15.95
2023-05-27T06:44:31.844Z,16.00
2023-05-27T06:46:34.624Z,16.03
2023-05-27T06:48:37.390Z,16.03
2023-05-27T06:50:41.902Z,16.07
2023-05-27T06:52:45.950Z,16.10
2023-05-27T06:54:49.260Z,16.13
2023-05-27T06:56:52.138Z,16.15
2023-05-27T06:58:54.760Z,16.18
2023-05-27T07:00:57.434Z,16.19
2023-05-27T07:03:01.587Z,16.23
2023-05-27T07:05:04.689Z,16.28
2023-05-27T07:07:07.359Z,16.32
2023-05-27T07:09:12.213Z,16.35
2023-05-27T07:11:14.882Z,16.35
2023-05-27T07:13:17.488Z,16.37
2023-05-27T07:15:20.336Z,16.41
2023-05-27T07:17:23.015Z,16.45
2023-05-27T07:19:25.637Z,16.46
2023-05-27T07:21:28.378Z,16.49
2023-05-27T07:23:31.027Z,16.52
2023-05-27T07:25:35.012Z,16.55
2023-05-27T07:27:37.711Z,16.57
2023-05-27T07:29:40.313Z,16.62
2023-05-27T07:31:43.055Z,16.64
2023-05-27T07:33:45.735Z,16.68
2023-05-27T07:35:48.466Z,16.72
2023-05-27T07:37:51.066Z,16.75
2023-05-27T07:39:53.758Z,16.76
2023-05-27T07:41:57.793Z,16.76
2023-05-27T07:44:00.835Z,16.77
2023-05-27T07:46:03.555Z,16.81
2023-05-27T07:48:06.383Z,16.83
2023-05-27T07:50:10.181Z,16.85
2023-05-27T07:52:12.814Z,16.87
2023-05-27T07:54:15.442Z,16.91
2023-05-27T07:56:18.288Z,16.93
2023-05-27T07:58:22.286Z,16.96
2023-05-27T08:00:24.998Z,16.93
2023-05-27T08:02:27.663Z,16.94
2023-05-27T08:04:30.435Z,17.01
2023-05-27T08:06:33.139Z,17.04
2023-05-27T08:08:35.757Z,17.08
2023-05-27T08:10:38.356Z,17.13
2023-05-27T08:12:41.047Z,17.15
2023-05-27T08:14:45.911Z,17.19
2023-05-27T08:16:48.652Z,17.20
2023-05-27T08:18:51.638Z,17.24
2023-05-27T08:20:54.599Z,17.26
2023-05-27T08:22:57.525Z,17.30
2023-05-27T08:25:00.139Z,17.35
2023-05-27T08:27:03.689Z,17.38
2023-05-27T08:29:06.601Z,17.41
2023-05-27T08:31:11.467Z,17.46
2023-05-27T08:33:14.230Z,17.47
2023-05-27T08:35:18.148Z,17.49
2023-05-27T08:37:20.777Z,17.54
2023-05-27T08:39:23.603Z,17.60
2023-05-27T08:41:28.110Z,17.62
2023-05-27T08:43:31.529Z,17.64
2023-05-27T08:45:34.413Z,17.70
2023-05-27T08:47:40.930Z,17.74
2023-05-27T08:49:43.667Z,17.76
2023-05-27T08:51:47.528Z,17.81
2023-05-27T08:53:50.544Z,17.81
2023-05-27T08:55:56.203Z,17.86
2023-05-27T08:58:00.795Z,17.86
2023-05-27T09:00:06.239Z,17.89
2023-05-27T09:02:15.425Z,17.93
2023-05-27T09:04:19.543Z,17.90
2023-05-27T09:06:22.289Z,17.98
2023-05-27T09:08:35.145Z,18.05
2023-05-27T09:10:38.844Z,18.07
2023-05-27T09:12:45.321Z,18.12
2023-05-27T09:14:51.361Z,18.18
2023-05-27T09:16:53.964Z,18.21
2023-05-27T09:18:56.577Z,18.25
2023-05-27T09:21:01.665Z,18.32
2023-05-27T09:23:06.428Z,18.35
2023-05-27T09:25:11.458Z,18.38
2023-05-27T09:27:15.575Z,18.39
2023-05-27T09:29:20.303Z,18.45
2023-05-27T09:31:24.098Z,18.48
2023-05-27T09:33:28.218Z,18.53
2023-05-27T09:35:31.040Z,18.53
2023-05-27T09:37:37.063Z,18.58
2023-05-27T09:39:41.049Z,18.65
2023-05-27T09:41:43.935Z,18.68
2023-05-27T09:43:55.793Z,18.69
2023-05-27T09:46:01.239Z,18.71
2023-05-27T09:48:08.986Z,18.77
2023-05-27T09:50:15.242Z,18.82
2023-05-27T09:52:21.567Z,18.85
2023-05-27T09:54:26.294Z,18.91
2023-05-27T09:56:30.351Z,18.95
2023-05-27T09:58:33.135Z,18.97
2023-05-27T10:00:35.995Z,19.03
2023-05-27T10:02:39.779Z,19.10
2023-05-27T10:04:43.204Z,19.16
2023-05-27T10:06:46.830Z,19.18
2023-05-27T10:08:49.625Z,19.19
2023-05-27T10:10:54.165Z,19.22
2023-05-27T10:12:59.270Z,19.28
2023-05-27T10:15:01.958Z,19.40
2023-05-27T10:17:04.931Z,19.44
2023-05-27T10:19:12.574Z,19.52
2023-05-27T10:21:20.595Z,19.53
2023-05-27T10:23:27.524Z,19.61
2023-05-27T10:25:38.215Z,19.66
2023-05-27T10:27:46.324Z,19.71
2023-05-27T10:29:59.489Z,19.71
2023-05-27T10:32:02.288Z,19.81
2023-05-27T10:34:07.012Z,19.87
2023-05-27T10:36:10.975Z,19.91
2023-05-27T10:38:18.502Z,19.95
2023-05-27T10:40:26.391Z,19.99
2023-05-27T10:42:29.079Z,20.05
2023-05-27T10:44:35.510Z,20.06
2023-05-27T10:46:43.069Z,20.07
2023-05-27T10:48:46.331Z,20.06
2023-05-27T10:50:53.131Z,20.09
2023-05-27T10:52:55.847Z,20.18
2023-05-27T10:54:59.077Z,20.23
2023-05-27T10:57:03.843Z,20.22
2023-05-27T10:59:12.043Z,20.32
2023-05-27T11:01:16.689Z,20.34
2023-05-27T11:03:22.686Z,20.37
2023-05-27T11:05:30.613Z,20.42
2023-05-27T11:07:33.212Z,20.47
2023-05-27T11:09:45.011Z,20.52
2023-05-27T11:11:47.667Z,20.52
2023-05-27T11:13:50.351Z,20.58
2023-05-27T11:15:53.059Z,20.64
2023-05-27T11:18:02.440Z,20.73
2023-05-27T11:20:07.659Z,20.78
2023-05-27T11:22:12.377Z,20.80
2023-05-27T11:24:18.860Z,20.91
2023-05-27T11:26:23.755Z,20.96
2023-05-27T11:28:26.721Z,21.06
2023-05-27T11:30:29.865Z,21.12
2023-05-27T11:32:36.321Z,21.12
2023-05-27T11:34:40.849Z,21.14
2023-05-27T11:36:46.498Z,21.19
2023-05-27T11:38:51.543Z,21.31
2023-05-27T11:40:54.432Z,21.37
2023-05-27T11:43:02.187Z,21.43
2023-05-27T11:45:07.910Z,21.47
2023-05-27T11:47:10.560Z,21.49
2023-05-27T11:49:14.714Z,21.53
2023-05-27T11:51:18.764Z,21.59
2023-05-27T11:53:21.411Z,21.58
2023-05-27T11:55:24.233Z,21.65
2023-05-27T11:57:26.961Z,21.61
2023-05-27T11:59:29.608Z,21.67
2023-05-27T12:01:32.258Z,21.74
2023-05-27T12:03:36.067Z,21.77
2023-05-27T12:05:38.767Z,21.82
2023-05-27T12:07:42.811Z,21.87
2023-05-27T12:09:45.425Z,21.91
2023-05-27T12:11:48.095Z,21.94
2023-05-27T12:13:52.223Z,21.94
2023-05-27T12:15:54.931Z,21.99
2023-05-27T12:17:57.932Z,22.06
2023-05-27T12:20:00.623Z,22.13
2023-05-27T12:22:03.272Z,22.16
2023-05-27T12:24:07.879Z,22.20
2023-05-27T12:26:10.956Z,22.17
2023-05-27T12:28:13.546Z,22.23
2023-05-27T12:30:16.352Z,22.27
2023-05-27T12:32:19.076Z,22.32
2023-05-27T12:34:21.687Z,22.37
2023-05-27T12:36:24.256Z,22.36
2023-05-27T12:38:27.070Z,22.41
2023-05-27T12:40:31.220Z,22.46
2023-05-27T12:42:34.372Z,22.51
2023-05-27T12:44:37.012Z,22.53
2023-05-27T12:46:39.646Z,22.58
2023-05-27T12:48:42.236Z,22.55
2023-05-27T12:50:45.058Z,22.67
2023-05-27T12:52:47.909Z,22.76
2023-05-27T12:54:50.476Z,22.81
2023-05-27T12:56:54.512Z,22.85
2023-05-27T12:58:57.152Z,22.95
2023-05-27T13:00:59.882Z,23.01
2023-05-27T13:03:03.003Z,23.06
2023-05-27T13:05:07.820Z,23.18
2023-05-27T13:07:12.147Z,23.26
2023-05-27T13:09:15.115Z,23.35
2023-05-27T13:11:18.432Z,23.56
2023-05-27T13:13:23.166Z,23.80
2023-05-27T13:15:25.999Z,24.06
2023-05-27T13:17:28.968Z,24.46
2023-05-27T13:19:31.568Z,24.95
2023-05-27T13:21:34.245Z,25.75
2023-05-27T13:23:36.992Z,26.43
2023-05-27T13:25:39.660Z,27.44
2023-05-27T13:27:45.533Z,28.84
2023-05-27T13:29:49.673Z,30.40
2023-05-27T13:31:52.287Z,31.91
2023-05-27T13:33:54.890Z,33.43
2023-05-27T13:35:57.580Z,34.76
2023-05-27T13:38:01.410Z,35.91
2023-05-27T13:40:05.550Z,36.74
2023-05-27T13:42:08.451Z,36.65
2023-05-27T13:44:11.054Z,37.04
2023-05-27T13:46:15.102Z,38.08
2023-05-27T13:48:18.100Z,38.70
2023-05-27T13:50:20.858Z,39.60
2023-05-27T13:52:23.604Z,40.34
2023-05-27T13:54:26.381Z,40.78
2023-05-27T13:56:28.969Z,41.61
2023-05-27T13:58:31.602Z,42.14
2023-05-27T14:00:34.236Z,42.53
2023-05-27T14:02:38.158Z,42.84
2023-05-27T14:04:40.802Z,42.76
2023-05-27T14:06:43.443Z,42.77
2023-05-27T14:08:46.522Z,42.98
2023-05-27T14:10:49.091Z,43.14
2023-05-27T14:12:51.707Z,43.14
2023-05-27T14:14:54.351Z,42.50
2023-05-27T14:16:57.693Z,42.17
2023-05-27T14:19:01.844Z,42.50
2023-05-27T14:21:04.850Z,42.59
2023-05-27T14:23:11.730Z,42.53
2023-05-27T14:25:14.403Z,42.51
2023-05-27T14:27:17.043Z,42.38
2023-05-27T14:29:19.725Z,41.63
2023-05-27T14:31:22.423Z,41.78
2023-05-27T14:33:25.036Z,41.67
2023-05-27T14:35:28.973Z,41.60
2023-05-27T14:37:31.594Z,41.49
2023-05-27T14:39:34.200Z,41.19
2023-05-27T14:41:36.807Z,40.99
2023-05-27T14:43:39.424Z,40.92
2023-05-27T14:45:42.156Z,40.50
2023-05-27T14:47:44.777Z,40.22
2023-05-27T14:49:47.346Z,40.05
2023-05-27T14:51:51.252Z,39.78
2023-05-27T14:53:53.828Z,39.39
2023-05-27T14:55:56.590Z,39.23
2023-05-27T14:57:59.260Z,39.10
2023-05-27T15:00:01.959Z,38.88
2023-05-27T15:02:04.962Z,38.45
2023-05-27T15:04:07.785Z,38.26
2023-05-27T15:06:11.621Z,37.59
2023-05-27T15:08:17.009Z,36.91
2023-05-27T15:10:19.646Z,36.29
2023-05-27T15:12:23.306Z,35.75
2023-05-27T15:14:26.517Z,35.23
2023-05-27T15:16:29.475Z,34.73
2023-05-27T15:18:32.119Z,34.30
2023-05-27T15:20:34.778Z,34.03
2023-05-27T15:22:37.440Z,33.78
2023-05-27T15:24:41.399Z,33.48
2023-05-27T15:26:44.065Z,33.29
2023-05-27T15:28:46.656Z,33.05
2023-05-27T15:30:49.360Z,32.86
2023-05-27T15:32:52.008Z,32.66
2023-05-27T15:34:54.693Z,32.37
2023-05-27T15:36:59.413Z,32.23
2023-05-27T15:39:02.060Z,32.07
2023-05-27T15:41:06.637Z,31.92
2023-05-27T15:43:09.786Z,31.77
2023-05-27T15:45:14.265Z,31.62
2023-05-27T15:47:16.997Z,31.49
2023-05-27T15:49:19.603Z,31.37
2023-05-27T15:51:23.654Z,31.17
2023-05-27T15:53:26.894Z,31.03
2023-05-27T15:55:29.577Z,30.88
2023-05-27T15:57:33.644Z,30.74
2023-05-27T15:59:36.555Z,30.67
2023-05-27T16:01:39.433Z,30.52
2023-05-27T16:03:42.149Z,30.42
2023-05-27T16:05:44.822Z,30.22
2023-05-27T16:07:47.408Z,30.14
2023-05-27T16:09:50.009Z,30.01
2023-05-27T16:11:52.856Z,29.95
2023-05-27T16:13:56.831Z,29.76
2023-05-27T16:15:59.425Z,29.72
2023-05-27T16:18:02.239Z,29.64
2023-05-27T16:20:05.797Z,29.48
2023-05-27T16:22:08.442Z,29.34
2023-05-27T16:24:11.527Z,29.33
2023-05-27T16:26:14.871Z,29.21
2023-05-27T16:28:18.616Z,29.18
2023-05-27T16:30:22.901Z,29.11
2023-05-27T16:32:26.290Z,29.09
2023-05-27T16:34:29.702Z,29.01
2023-05-27T16:36:32.861Z,28.85
2023-05-27T16:38:35.891Z,28.80
2023-05-27T16:40:38.621Z,28.61
2023-05-27T16:42:41.328Z,28.55
2023-05-27T16:44:43.914Z,28.53
2023-05-27T16:46:47.970Z,28.48
2023-05-27T16:48:50.742Z,28.37
2023-05-27T16:50:53.352Z,28.36
2023-05-27T16:52:56.004Z,28.22
2023-05-27T16:54:59.566Z,28.15
2023-05-27T16:57:03.396Z,28.12
2023-05-27T16:59:06.035Z,28.05
2023-05-27T17:01:08.775Z,27.94
2023-05-27T17:03:12.930Z,27.84
2023-05-27T17:05:16.838Z,27.81
2023-05-27T17:07:19.639Z,27.74
2023-05-27T17:09:24.125Z,27.59
2023-05-27T17:11:27.640Z,27.50
2023-05-27T17:13:30.380Z,27.44
2023-05-27T17:15:33.131Z,27.35
2023-05-27T17:17:36.547Z,27.30
2023-05-27T17:19:40.621Z,27.19
2023-05-27T17:21:43.301Z,27.06
2023-05-27T17:23:46.134Z,27.02
2023-05-27T17:25:48.746Z,26.87
2023-05-27T17:27:51.486Z,26.79
2023-05-27T17:29:54.637Z,26.68
2023-05-27T17:31:57.458Z,26.63
2023-05-27T17:34:02.390Z,26.59
2023-05-27T17:36:07.425Z,26.53
2023-05-27T17:38:12.090Z,26.31
2023-05-27T17:40:15.072Z,26.30
2023-05-27T17:42:17.722Z,26.26
2023-05-27T17:44:20.383Z,26.19
2023-05-27T17:46:23.309Z,26.16
2023-05-27T17:48:26.184Z,26.15
2023-05-27T17:50:29.020Z,25.99
2023-05-27T17:52:33.046Z,25.98
2023-05-27T17:54:37.650Z,25.91
2023-05-27T17:56:40.388Z,25.85
2023-05-27T17:58:43.059Z,25.80
2023-05-27T18:00:46.719Z,25.75
2023-05-27T18:02:50.760Z,25.65
2023-05-27T18:04:53.828Z,25.57
2023-05-27T18:06:56.554Z,25.52
2023-05-27T18:09:00.712Z,25.42
2023-05-27T18:11:03.856Z,25.34
2023-05-27T18:13:06.776Z,25.24
2023-05-27T18:15:10.889Z,25.15
2023-05-27T18:17:16.031Z,25.06
2023-05-27T18:19:19.146Z,24.97
2023-05-27T18:21:21.824Z,24.92
2023-05-27T18:23:24.912Z,24.86
2023-05-27T18:25:28.854Z,24.79
2023-05-27T18:27:31.618Z,24.71
2023-05-27T18:29:34.909Z,24.61
2023-05-27T18:31:37.826Z,24.53
2023-05-27T18:33:40.621Z,24.48
2023-05-27T18:35:43.818Z,24.42
2023-05-27T18:37:46.765Z,24.37
2023-05-27T18:39:49.457Z,24.23
2023-05-27T18:41:53.645Z,24.13
2023-05-27T18:43:56.314Z,24.04
2023-05-27T18:46:00.654Z,23.96
2023-05-27T18:48:03.481Z,23.89
2023-05-27T18:50:08.104Z,23.83
2023-05-27T18:52:11.965Z,23.77
2023-05-27T18:54:14.575Z,23.70
2023-05-27T18:56:18.654Z,23.61
2023-05-27T18:58:22.679Z,23.52
2023-05-27T19:00:25.363Z,23.43
2023-05-27T19:02:28.140Z,23.27
2023-05-27T19:04:31.153Z,23.15
2023-05-27T19:06:34.062Z,23.03
2023-05-27T19:08:36.664Z,22.95
2023-05-27T19:10:40.877Z,22.87
2023-05-27T19:12:43.558Z,22.79
2023-05-27T19:14:47.616Z,22.76
2023-05-27T19:16:50.285Z,22.74
2023-05-27T19:18:54.375Z,22.68
2023-05-27T19:20:57.032Z,22.59
2023-05-27T19:23:02.302Z,22.51
2023-05-27T19:25:05.456Z,22.43
2023-05-27T19:27:08.161Z,22.34
2023-05-27T19:29:10.985Z,22.26
2023-05-27T19:31:14.945Z,22.20
2023-05-27T19:33:17.743Z,22.00
2023-05-27T19:35:20.366Z,21.82
2023-05-27T19:37:23.071Z,21.56
2023-05-27T19:39:25.713Z,21.43
2023-05-27T19:41:28.421Z,21.37
2023-05-27T19:43:31.048Z,21.21
2023-05-27T19:45:33.717Z,20.95
2023-05-27T19:47:37.728Z,20.80
2023-05-27T19:49:40.350Z,20.77
2023-05-27T19:51:43.005Z,20.86
2023-05-27T19:53:45.906Z,20.86
2023-05-27T19:55:48.540Z,20.92
2023-05-27T19:57:51.186Z,20.87
2023-05-27T19:59:54.376Z,20.87
2023-05-27T20:01:57.017Z,20.86
2023-05-27T20:04:01.290Z,20.78
2023-05-27T20:06:04.017Z,20.81
2023-05-27T20:08:06.624Z,20.78
2023-05-27T20:10:10.540Z,20.79
2023-05-27T20:12:13.171Z,20.83
2023-05-27T20:14:20.838Z,20.79
2023-05-27T20:16:24.333Z,20.76
2023-05-27T20:18:27.988Z,20.74
2023-05-27T20:20:37.675Z,20.71
2023-05-27T20:22:41.405Z,20.54
2023-05-27T20:24:44.135Z,20.40
2023-05-27T20:26:46.867Z,20.30
2023-05-27T20:28:49.492Z,20.18
2023-05-27T20:30:53.078Z,20.07
2023-05-27T20:32:56.387Z,19.98
2023-05-27T20:34:59.087Z,19.87
2023-05-27T20:37:03.062Z,19.77
2023-05-27T20:39:05.753Z,19.67
2023-05-27T20:41:09.650Z,19.59
2023-05-27T20:43:12.357Z,19.54
2023-05-27T20:45:16.144Z,19.53
2023-05-27T20:47:18.870Z,19.49
2023-05-27T20:49:21.537Z,19.50
2023-05-27T20:51:24.577Z,19.55
2023-05-27T20:53:28.636Z,19.51
2023-05-27T20:55:31.298Z,19.47
2023-05-27T20:57:33.894Z,19.42
2023-05-27T20:59:36.628Z,19.34
2023-05-27T21:01:40.829Z,19.30
2023-05-27T21:03:43.945Z,19.24
2023-05-27T21:05:47.564Z,19.22
2023-05-27T21:07:52.443Z,19.22
2023-05-27T21:09:56.452Z,19.23
2023-05-27T21:11:59.146Z,19.28
2023-05-27T21:14:01.847Z,19.29
2023-05-27T21:16:04.595Z,19.28
2023-05-27T21:18:10.056Z,19.23
2023-05-27T21:20:13.507Z,19.06
2023-05-27T21:22:16.537Z,18.91
2023-05-27T21:24:19.407Z,18.71
2023-05-27T21:26:23.605Z,18.67
2023-05-27T21:28:26.467Z,18.61
2023-05-27T21:30:29.106Z,18.50
2023-05-27T21:32:31.821Z,18.45
2023-05-27T21:34:34.517Z,18.43
2023-05-27T21:36:37.352Z,18.42
2023-05-27T21:38:40.141Z,18.39
2023-05-27T21:40:42.795Z,18.24
2023-05-27T21:42:46.840Z,18.24
2023-05-27T21:44:50.688Z,18.26
2023-05-27T21:46:54.001Z,18.36
2023-05-27T21:48:56.662Z,18.43
2023-05-27T21:50:59.319Z,18.50
2023-05-27T21:53:04.711Z,18.54
2023-05-27T21:55:08.175Z,18.54
2023-05-27T21:57:10.800Z,18.52
2023-05-27T21:59:14.769Z,18.53
2023-05-27T22:01:17.559Z,18.53
2023-05-27T22:03:20.363Z,18.48
2023-05-27T22:05:23.071Z,18.48
2023-05-27T22:07:25.718Z,18.38
2023-05-27T22:09:28.344Z,18.35
2023-05-27T22:11:30.979Z,18.26
2023-05-27T22:13:33.673Z,18.15
2023-05-27T22:15:37.625Z,18.08
2023-05-27T22:17:40.370Z,18.03
2023-05-27T22:19:43.912Z,17.98
2023-05-27T22:21:46.517Z,17.95
2023-05-27T22:23:49.217Z,17.93
2023-05-27T22:25:51.974Z,17.92
2023-05-27T22:27:55.646Z,17.91
2023-05-27T22:29:58.273Z,17.83
2023-05-27T22:32:02.531Z,17.75
2023-05-27T22:34:06.186Z,17.69
2023-05-27T22:36:12.023Z,17.65
2023-05-27T22:38:14.844Z,17.56
2023-05-27T22:40:19.125Z,17.50
2023-05-27T22:42:21.707Z,17.49
2023-05-27T22:44:24.386Z,17.44
2023-05-27T22:46:29.973Z,17.42
2023-05-27T22:48:34.076Z,17.39
2023-05-27T22:50:36.807Z,17.38
2023-05-27T22:52:39.622Z,17.35
2023-05-27T22:54:42.310Z,17.35
2023-05-27T22:56:45.010Z,17.34
2023-05-27T22:58:48.508Z,17.35
2023-05-27T23:00:51.326Z,17.35
2023-05-27T23:02:54.030Z,17.34
2023-05-27T23:04:58.128Z,17.33
2023-05-27T23:07:00.908Z,17.29
2023-05-27T23:09:03.699Z,17.30
2023-05-27T23:11:06.565Z,17.25
2023-05-27T23:13:09.452Z,17.22
2023-05-27T23:15:12.161Z,17.24
2023-05-27T23:17:14.874Z,17.21
2023-05-27T23:19:17.523Z,17.18
2023-05-27T23:21:21.579Z,17.18
2023-05-27T23:23:24.186Z,17.17
2023-05-27T23:25:26.981Z,17.18
2023-05-27T23:27:29.587Z,17.18
2023-05-27T23:29:32.278Z,17.10
2023-05-27T23:31:34.939Z,16.91
2023-05-27T23:33:37.569Z,16.83
2023-05-27T23:35:40.222Z,16.79
2023-05-27T23:37:44.204Z,16.69
2023-05-27T23:39:46.888Z,16.73
2023-05-27T23:41:49.622Z,16.66
2023-05-27T23:43:52.323Z,16.60
2023-05-27T23:45:55.264Z,16.57
2023-05-27T23:47:58.267Z,16.55
2023-05-27T23:50:01.029Z,16.52
2023-05-27T23:52:04.030Z,16.51
2023-05-27T23:54:08.081Z,16.46
2023-05-27T23:56:10.847Z,16.42
2023-05-27T23:58:15.393Z,16.42
